Terminal Aerodrome Forecast
Issued by NWS Wilmington, OH

Current Version | Previous Version | Graphics & Text | Print | Product List | Glossary Off
Versions: 1 2 3 4 5 6 7 8 9 10 11 12 13 14 15 16

000
FTUS41 KILN 242300
TAFILN
TAF
KILN 242336Z 2500/2524 12011KT P6SM SCT130 OVC250
     FM250800 16010KT 5SM -SHRA OVC050
     FM251100 18013KT P6SM VCSH OVC015CB
     FM251400 21014KT 4SM -SHRA VCTS OVC015CB
     FM251800 31018G28KT P6SM BKN018
     FM252100 30016G26KT P6SM SCT040=

USA.gov is the U.S. government's official web portal to all federal, state and local government web resources and services.